createdAt,value
2019-01-23T00:00:24.647Z,0.00
2019-01-23T00:01:24.674Z,0.00
2019-01-23T00:02:24.699Z,0.00
2019-01-23T00:03:24.724Z,0.00
2019-01-23T00:04:24.754Z,0.00
2019-01-23T00:05:24.777Z,0.00
2019-01-23T00:06:24.802Z,0.00
2019-01-23T00:07:24.836Z,0.00
2019-01-23T00:08:24.860Z,0.00
2019-01-23T00:09:24.881Z,0.00
2019-01-23T00:10:24.906Z,0.00
2019-01-23T00:11:24.931Z,0.00
2019-01-23T00:12:24.956Z,0.00
2019-01-23T00:13:24.988Z,0.00
2019-01-23T00:14:25.013Z,0.00
2019-01-23T00:15:25.033Z,0.00
2019-01-23T00:16:25.060Z,0.00
2019-01-23T00:17:25.089Z,0.00
2019-01-23T00:18:25.118Z,0.00
2019-01-23T00:19:25.137Z,0.00
2019-01-23T00:20:25.165Z,0.00
2019-01-23T00:21:25.189Z,0.00
2019-01-23T00:22:25.213Z,0.00
2019-01-23T00:23:25.242Z,0.00
2019-01-23T00:24:25.266Z,0.00
2019-01-23T00:25:25.291Z,0.00
2019-01-23T00:26:25.320Z,0.00
2019-01-23T00:27:25.339Z,0.00
2019-01-23T00:28:25.366Z,0.00
2019-01-23T00:29:25.393Z,0.00
2019-01-23T00:30:25.418Z,0.00
2019-01-23T00:31:25.442Z,0.00
2019-01-23T00:32:25.468Z,0.00
2019-01-23T00:33:25.496Z,0.00
2019-01-23T00:34:25.522Z,0.00
2019-01-23T00:35:25.544Z,0.00
2019-01-23T00:36:25.572Z,0.00
2019-01-23T00:37:25.596Z,0.00
2019-01-23T00:38:25.621Z,0.00
2019-01-23T00:39:25.652Z,0.00
2019-01-23T00:40:25.682Z,0.00
2019-01-23T00:41:25.698Z,0.00
2019-01-23T00:42:25.724Z,0.00
2019-01-23T00:43:25.758Z,0.00
2019-01-23T00:44:25.777Z,0.00
2019-01-23T00:45:25.803Z,0.00
2019-01-23T00:46:25.826Z,0.00
2019-01-23T00:47:25.888Z,0.00
2019-01-23T00:48:25.878Z,0.00
2019-01-23T00:49:25.905Z,0.00
2019-01-23T00:50:25.928Z,0.00
2019-01-23T00:51:25.954Z,0.00
2019-01-23T00:52:25.979Z,0.00
2019-01-23T00:53:26.005Z,0.00
2019-01-23T00:54:26.032Z,0.00
2019-01-23T00:55:26.054Z,0.00
2019-01-23T00:56:26.083Z,0.00
2019-01-23T00:57:26.109Z,0.00
2019-01-23T00:58:26.131Z,0.00
2019-01-23T00:59:26.160Z,0.00
2019-01-23T01:00:26.182Z,0.00
2019-01-23T01:01:26.209Z,0.00
2019-01-23T01:02:26.233Z,0.00
2019-01-23T01:03:26.259Z,0.00
2019-01-23T01:04:26.283Z,0.00
2019-01-23T01:05:26.309Z,0.00
2019-01-23T01:06:26.334Z,0.00
2019-01-23T01:07:26.361Z,0.00
2019-01-23T01:08:26.385Z,0.00
2019-01-23T01:09:26.414Z,0.00
2019-01-23T01:10:26.436Z,0.00
2019-01-23T01:11:26.462Z,0.00
2019-01-23T01:12:26.530Z,0.00
2019-01-23T01:13:26.513Z,0.00
2019-01-23T01:14:26.541Z,0.00
2019-01-23T01:15:26.563Z,0.00
2019-01-23T01:16:26.590Z,0.00
2019-01-23T01:17:26.616Z,0.00
2019-01-23T01:18:26.646Z,0.00
2019-01-23T01:19:26.669Z,0.00
2019-01-23T01:20:26.692Z,0.00
2019-01-23T01:21:26.717Z,0.00
2019-01-23T01:22:26.740Z,0.00
2019-01-23T01:23:26.767Z,0.00
2019-01-23T01:24:26.793Z,0.00
2019-01-23T01:25:26.821Z,0.00
2019-01-23T01:26:26.843Z,0.00
2019-01-23T01:27:26.870Z,0.00
2019-01-23T01:28:26.897Z,0.00
2019-01-23T01:29:26.926Z,0.00
2019-01-23T01:30:26.946Z,0.00
2019-01-23T01:31:26.969Z,0.00
2019-01-23T01:32:27.000Z,0.00
2019-01-23T01:33:27.022Z,0.00
2019-01-23T01:34:27.046Z,0.00
2019-01-23T01:35:27.072Z,0.00
2019-01-23T01:36:27.098Z,0.00
2019-01-23T01:37:27.123Z,0.00
2019-01-23T01:38:27.152Z,0.00
2019-01-23T01:39:27.174Z,0.00
2019-01-23T01:40:27.199Z,0.00
2019-01-23T01:41:27.227Z,0.00
2019-01-23T01:42:27.250Z,0.00
2019-01-23T01:43:27.278Z,0.00
2019-01-23T01:44:27.301Z,0.00
2019-01-23T01:45:27.327Z,0.00
2019-01-23T01:46:27.353Z,0.00
2019-01-23T01:47:27.383Z,0.00
2019-01-23T01:48:27.400Z,0.00
2019-01-23T01:49:27.426Z,0.00
2019-01-23T01:50:27.453Z,0.00
2019-01-23T01:51:27.477Z,0.00
2019-01-23T01:52:27.504Z,0.00
2019-01-23T01:53:27.528Z,0.00
2019-01-23T01:54:27.554Z,0.00
2019-01-23T01:55:27.580Z,0.00
2019-01-23T01:56:27.604Z,0.00
2019-01-23T01:57:27.631Z,0.00
2019-01-23T01:58:27.660Z,0.00
2019-01-23T01:59:27.681Z,0.00
2019-01-23T02:00:27.707Z,0.00
2019-01-23T02:01:27.733Z,0.00
2019-01-23T02:02:27.757Z,0.00
2019-01-23T02:03:27.782Z,0.00
2019-01-23T02:04:27.809Z,0.00
2019-01-23T02:05:27.833Z,0.00
2019-01-23T02:06:27.859Z,0.00
2019-01-23T02:07:27.884Z,0.00
2019-01-23T02:08:27.911Z,0.00
2019-01-23T02:09:27.935Z,0.00
2019-01-23T02:10:27.961Z,0.00
2019-01-23T02:11:27.986Z,0.00
2019-01-23T02:12:28.010Z,0.00
2019-01-23T02:13:28.036Z,0.00
2019-01-23T02:14:28.065Z,0.00
2019-01-23T02:15:28.087Z,0.00
2019-01-23T02:16:28.111Z,0.00
2019-01-23T02:17:28.140Z,0.00
2019-01-23T02:18:28.184Z,0.00
2019-01-23T02:19:28.190Z,0.00
2019-01-23T02:20:28.213Z,0.00
2019-01-23T02:21:28.239Z,0.00
2019-01-23T02:22:28.264Z,0.00
2019-01-23T02:23:28.290Z,0.00
2019-01-23T02:24:28.324Z,0.00
2019-01-23T02:25:28.341Z,0.00
2019-01-23T02:26:28.365Z,0.00
2019-01-23T02:27:35.546Z,0.00
2019-01-23T02:29:32.408Z,0.00
2019-01-23T02:30:32.430Z,0.00
2019-01-23T02:32:36.446Z,0.00
2019-01-23T02:33:36.470Z,0.00
2019-01-23T02:35:40.480Z,0.00
2019-01-23T02:36:40.501Z,0.00
2019-01-23T02:38:33.436Z,0.00
2019-01-23T02:39:33.457Z,0.00
2019-01-23T02:41:37.474Z,0.00
2019-01-23T02:42:37.496Z,0.00
2019-01-23T02:44:41.542Z,0.00
2019-01-23T02:45:41.534Z,0.00
2019-01-23T02:47:45.573Z,0.00
2019-01-23T02:48:45.567Z,0.00
2019-01-23T02:50:49.588Z,0.00
2019-01-23T02:51:49.607Z,0.00
2019-01-23T02:53:53.639Z,0.00
2019-01-23T02:54:53.642Z,0.00
2019-01-23T02:56:57.659Z,0.00
2019-01-23T02:57:57.680Z,0.00
2019-01-23T03:00:01.697Z,0.00
2019-01-23T03:01:01.717Z,0.00
2019-01-23T03:03:05.750Z,0.00
2019-01-23T03:04:05.768Z,0.00
2019-01-23T03:06:09.772Z,0.00
2019-01-23T03:07:09.795Z,0.00
2019-01-23T03:09:13.825Z,0.00
2019-01-23T03:10:13.829Z,0.00
2019-01-23T03:12:17.862Z,0.00
2019-01-23T03:13:17.866Z,0.00
2019-01-23T03:15:21.882Z,0.00
2019-01-23T03:16:21.903Z,0.00
2019-01-23T03:18:14.842Z,0.00
2019-01-23T03:19:14.859Z,0.00
2019-01-23T03:21:18.876Z,0.00
2019-01-23T03:22:18.907Z,0.00
2019-01-23T03:24:22.913Z,0.00
2019-01-23T03:25:22.935Z,0.00
2019-01-23T03:27:26.967Z,0.00
2019-01-23T03:28:26.974Z,0.00
2019-01-23T03:30:30.994Z,0.00
2019-01-23T03:31:31.018Z,0.00
2019-01-23T03:33:35.857Z,0.00
2019-01-23T03:34:35.246Z,0.00
2019-01-23T03:36:39.276Z,0.00
2019-01-23T03:37:39.287Z,0.00
2019-01-23T03:39:43.314Z,0.00
2019-01-23T03:40:43.316Z,0.00
2019-01-23T03:42:47.336Z,0.00
2019-01-23T03:43:47.363Z,0.00
2019-01-23T03:45:51.369Z,0.00
2019-01-23T03:46:51.390Z,0.00
2019-01-23T03:48:44.325Z,0.00
2019-01-23T03:49:44.351Z,0.00
2019-01-23T03:51:48.365Z,0.00
2019-01-23T03:52:48.385Z,0.00
2019-01-23T03:54:52.400Z,0.00
2019-01-23T03:55:52.421Z,0.00
2019-01-23T03:57:56.434Z,0.00
2019-01-23T03:58:56.454Z,0.00
2019-01-23T04:01:00.512Z,0.00
2019-01-23T04:02:00.494Z,0.00
2019-01-23T04:04:04.510Z,0.00
2019-01-23T04:05:04.528Z,0.00
2019-01-23T04:07:08.551Z,0.00
2019-01-23T04:08:08.573Z,0.00
2019-01-23T04:10:12.587Z,0.00
2019-01-23T04:11:12.607Z,0.00
2019-01-23T04:13:16.622Z,0.00
2019-01-23T04:14:16.643Z,0.00
2019-01-23T04:16:20.662Z,0.00
2019-01-23T04:17:20.678Z,0.00
2019-01-23T04:19:24.694Z,0.00
2019-01-23T04:20:24.716Z,0.00
2019-01-23T04:22:28.752Z,0.00
2019-01-23T04:23:28.755Z,0.00
2019-01-23T04:25:32.770Z,0.00
2019-01-23T04:26:32.793Z,0.00
2019-01-23T04:28:25.758Z,0.00
2019-01-23T04:29:25.750Z,0.00
2019-01-23T04:31:29.770Z,0.00
2019-01-23T04:32:29.791Z,0.00
2019-01-23T04:34:33.842Z,0.00
2019-01-23T04:35:33.828Z,0.00
2019-01-23T04:37:37.840Z,0.00
2019-01-23T04:38:37.861Z,0.00
2019-01-23T04:40:41.895Z,0.00
2019-01-23T04:41:41.901Z,0.00
2019-01-23T04:43:45.913Z,0.00
2019-01-23T04:44:45.936Z,0.00
2019-01-23T04:46:49.960Z,0.00
2019-01-23T04:47:49.976Z,0.00
2019-01-23T04:49:54.006Z,0.00
2019-01-23T04:50:54.009Z,0.00
2019-01-23T04:52:58.026Z,0.00
2019-01-23T04:53:58.044Z,0.00
2019-01-23T04:56:02.078Z,0.00
2019-01-23T04:57:02.085Z,0.00
2019-01-23T04:58:55.015Z,0.00
2019-01-23T04:59:55.037Z,0.00
2019-01-23T05:01:59.068Z,0.00
2019-01-23T05:02:59.075Z,0.00
2019-01-23T05:05:03.093Z,0.00
2019-01-23T05:06:03.117Z,0.00
2019-01-23T05:08:07.128Z,0.00
2019-01-23T05:09:07.152Z,0.00
2019-01-23T05:11:11.171Z,0.00
2019-01-23T05:12:11.191Z,0.00
2019-01-23T05:14:15.210Z,0.00
2019-01-23T05:15:15.227Z,0.00
2019-01-23T05:17:19.252Z,0.00
2019-01-23T05:18:19.265Z,0.00
2019-01-23T05:20:23.280Z,0.00
2019-01-23T05:21:23.300Z,0.00
2019-01-23T05:23:27.319Z,0.00
2019-01-23T05:24:27.342Z,0.00
2019-01-23T05:26:31.704Z,0.00
2019-01-23T05:27:31.373Z,0.00
2019-01-23T05:29:35.388Z,0.00
2019-01-23T05:30:35.413Z,0.00
2019-01-23T05:32:39.422Z,0.00
2019-01-23T05:33:39.441Z,0.00
2019-01-23T05:35:43.458Z,0.00
2019-01-23T05:36:43.480Z,0.00
2019-01-23T05:38:36.413Z,0.00
2019-01-23T05:39:36.434Z,0.00
2019-01-23T05:41:40.454Z,0.00
2019-01-23T05:42:40.482Z,0.00
2019-01-23T05:44:44.496Z,0.00
2019-01-23T05:45:44.519Z,0.00
2019-01-23T05:47:48.533Z,0.00
2019-01-23T05:48:48.552Z,0.00
2019-01-23T05:50:52.569Z,0.00
2019-01-23T05:51:52.591Z,0.00
2019-01-23T05:53:56.609Z,0.00
2019-01-23T05:54:56.634Z,0.00
2019-01-23T05:57:00.646Z,0.00
2019-01-23T05:58:00.667Z,0.00
2019-01-23T06:00:04.727Z,0.00
2019-01-23T06:01:04.704Z,0.00
2019-01-23T06:03:08.721Z,0.00
2019-01-23T06:04:08.740Z,0.00
2019-01-23T06:06:12.754Z,0.00
2019-01-23T06:07:12.776Z,0.00
2019-01-23T06:09:16.789Z,0.00
2019-01-23T06:10:16.808Z,0.00
2019-01-23T06:12:20.822Z,0.00
2019-01-23T06:13:20.845Z,0.00
2019-01-23T06:15:24.878Z,0.00
2019-01-23T06:16:24.880Z,0.00
2019-01-23T06:18:17.812Z,0.00
2019-01-23T06:19:17.833Z,0.00
2019-01-23T06:21:21.864Z,0.00
2019-01-23T06:22:21.871Z,0.00
2019-01-23T06:24:25.882Z,0.00
2019-01-23T06:25:25.904Z,0.00
2019-01-23T06:27:29.914Z,0.00
2019-01-23T06:28:29.966Z,0.00
2019-01-23T06:30:33.951Z,0.00
2019-01-23T06:31:33.972Z,0.00
2019-01-23T06:33:37.984Z,0.00
2019-01-23T06:34:38.005Z,0.00
2019-01-23T06:36:42.018Z,0.00
2019-01-23T06:37:42.039Z,0.00
2019-01-23T06:39:46.054Z,0.00
2019-01-23T06:40:46.075Z,0.00
2019-01-23T06:42:50.092Z,0.00
2019-01-23T06:43:50.119Z,4.00
2019-01-23T06:45:54.127Z,4.00
2019-01-23T06:46:54.148Z,0.00
2019-01-23T06:48:47.096Z,4.00
2019-01-23T06:49:47.103Z,4.00
2019-01-23T06:51:51.116Z,8.00
2019-01-23T06:52:51.140Z,8.00
2019-01-23T06:54:55.170Z,8.00
2019-01-23T06:55:55.175Z,12.00
2019-01-23T06:57:59.687Z,12.00
2019-01-23T06:58:59.711Z,16.00
2019-01-23T07:01:03.740Z,12.00
2019-01-23T07:02:03.742Z,12.00
2019-01-23T07:04:07.794Z,16.00
2019-01-23T07:05:07.779Z,16.00
2019-01-23T07:06:07.805Z,20.00
2019-01-23T07:07:07.830Z,20.00
2019-01-23T07:08:07.901Z,20.00
2019-01-23T07:09:07.939Z,20.00
2019-01-23T07:10:07.902Z,24.00
2019-01-23T07:11:07.933Z,28.00
2019-01-23T07:12:07.960Z,28.00
2019-01-23T07:13:07.985Z,28.00
2019-01-23T07:14:08.100Z,32.00
2019-01-23T07:15:08.026Z,32.00
2019-01-23T07:16:08.050Z,36.00
2019-01-23T07:17:08.133Z,36.00
2019-01-23T07:18:08.100Z,40.00
2019-01-23T07:19:08.125Z,40.00
2019-01-23T07:20:08.150Z,40.00
2019-01-23T07:21:08.178Z,40.00
2019-01-23T07:22:08.202Z,40.00
2019-01-23T07:23:08.226Z,44.00
2019-01-23T07:24:08.249Z,44.00
2019-01-23T07:25:08.275Z,44.00
2019-01-23T07:26:08.301Z,52.00
2019-01-23T07:27:08.327Z,52.00
2019-01-23T07:28:08.350Z,56.00
2019-01-23T07:29:08.375Z,60.00
2019-01-23T07:30:08.399Z,68.00
2019-01-23T07:31:08.429Z,76.00
2019-01-23T07:32:08.449Z,72.00
2019-01-23T07:33:08.475Z,76.00
2019-01-23T07:34:08.500Z,80.00
2019-01-23T07:35:08.524Z,80.00
2019-01-23T07:36:08.548Z,88.00
2019-01-23T07:37:08.573Z,92.00
2019-01-23T07:38:08.598Z,96.00
2019-01-23T07:39:08.624Z,104.00
2019-01-23T07:40:08.647Z,108.00
2019-01-23T07:41:08.675Z,116.00
2019-01-23T07:42:08.697Z,112.00
2019-01-23T07:43:08.723Z,120.00
2019-01-23T07:44:08.747Z,132.00
2019-01-23T07:45:08.772Z,148.00
2019-01-23T07:46:08.800Z,144.00
2019-01-23T07:47:08.823Z,176.00
2019-01-23T07:48:08.846Z,196.00
2019-01-23T07:49:08.872Z,192.00
2019-01-23T07:50:08.897Z,160.00
2019-01-23T07:51:08.922Z,168.00
2019-01-23T07:52:08.946Z,184.00
2019-01-23T07:53:08.988Z,212.00
2019-01-23T07:54:08.998Z,232.00
2019-01-23T07:55:09.024Z,228.00
2019-01-23T07:56:09.047Z,212.00
2019-01-23T07:57:09.072Z,248.00
2019-01-23T07:58:09.097Z,328.00
2019-01-23T07:59:09.986Z,316.00
2019-01-23T08:00:09.148Z,320.00
2019-01-23T08:01:09.173Z,348.00
2019-01-23T08:02:09.198Z,344.00
2019-01-23T08:03:09.224Z,344.00
2019-01-23T08:04:09.246Z,324.00
2019-01-23T08:05:09.272Z,300.00
2019-01-23T08:06:09.299Z,320.00
2019-01-23T08:07:09.326Z,420.00
2019-01-23T08:08:09.352Z,404.00
2019-01-23T08:09:09.376Z,416.00
2019-01-23T08:10:09.404Z,396.00
2019-01-23T08:11:09.437Z,384.00
2019-01-23T08:12:10.857Z,376.00
2019-01-23T08:13:09.501Z,368.00
2019-01-23T08:14:09.502Z,376.00
2019-01-23T08:15:09.525Z,384.00
2019-01-23T08:16:09.549Z,300.00
2019-01-23T08:17:09.574Z,284.00
2019-01-23T08:18:09.598Z,300.00
2019-01-23T08:19:09.623Z,284.00
2019-01-23T08:20:09.650Z,292.00
2019-01-23T08:21:09.674Z,308.00
2019-01-23T08:22:09.702Z,296.00
2019-01-23T08:23:09.725Z,300.00
2019-01-23T08:24:09.753Z,324.00
2019-01-23T08:25:09.775Z,380.00
2019-01-23T08:26:09.802Z,372.00
2019-01-23T08:27:09.825Z,384.00
2019-01-23T08:28:17.015Z,508.00
2019-01-23T08:30:02.997Z,584.00
2019-01-23T08:31:03.016Z,620.00
2019-01-23T08:33:07.041Z,596.00
2019-01-23T08:34:07.060Z,588.00
2019-01-23T08:36:11.596Z,552.00
2019-01-23T08:37:11.601Z,556.00
2019-01-23T08:38:11.627Z,616.00
2019-01-23T08:39:11.652Z,700.00
2019-01-23T08:40:11.702Z,616.00
2019-01-23T08:41:11.704Z,588.00
2019-01-23T08:42:11.726Z,612.00
2019-01-23T08:43:11.753Z,588.00
2019-01-23T08:44:11.778Z,588.00
2019-01-23T08:45:11.804Z,660.00
2019-01-23T08:46:11.829Z,680.00
2019-01-23T08:47:11.868Z,680.00
2019-01-23T08:48:11.880Z,728.00
2019-01-23T08:49:11.907Z,784.00
2019-01-23T08:50:11.933Z,884.00
2019-01-23T08:51:11.957Z,1076.00
2019-01-23T08:52:11.980Z,828.00
2019-01-23T08:53:12.007Z,952.00
2019-01-23T08:54:12.031Z,852.00
2019-01-23T08:55:12.057Z,992.00
2019-01-23T08:56:12.082Z,888.00
2019-01-23T08:57:12.106Z,808.00
2019-01-23T08:58:12.132Z,676.00
2019-01-23T08:59:12.157Z,800.00
2019-01-23T09:00:12.184Z,768.00
2019-01-23T09:01:12.208Z,728.00
2019-01-23T09:02:12.233Z,1040.00
2019-01-23T09:03:12.263Z,1016.00
2019-01-23T09:04:12.286Z,904.00
2019-01-23T09:05:12.310Z,1176.00
2019-01-23T09:06:12.335Z,896.00
2019-01-23T09:07:12.362Z,904.00
2019-01-23T09:08:12.389Z,940.00
2019-01-23T09:09:12.410Z,888.00
2019-01-23T09:10:12.437Z,1156.00
2019-01-23T09:11:12.463Z,956.00
2019-01-23T09:12:12.490Z,1380.00
2019-01-23T09:13:12.515Z,1136.00
2019-01-23T09:14:12.542Z,824.00
2019-01-23T09:15:12.566Z,896.00
2019-01-23T09:16:12.592Z,960.00
2019-01-23T09:17:12.619Z,1072.00
2019-01-23T09:18:12.644Z,1220.00
2019-01-23T09:19:12.667Z,1176.00
2019-01-23T09:20:12.693Z,1048.00
2019-01-23T09:21:12.721Z,1216.00
2019-01-23T09:22:12.773Z,1476.00
2019-01-23T09:23:12.783Z,1428.00
2019-01-23T09:24:12.798Z,1508.00
2019-01-23T09:25:12.820Z,1768.00
2019-01-23T09:26:12.848Z,1660.00
2019-01-23T09:27:12.873Z,1604.00
2019-01-23T09:28:12.900Z,2160.00
2019-01-23T09:29:12.928Z,2416.00
2019-01-23T09:30:12.950Z,2492.00
2019-01-23T09:31:12.976Z,2512.00
2019-01-23T09:32:13.002Z,2816.00
2019-01-23T09:33:13.029Z,2712.00
2019-01-23T09:34:13.056Z,2816.00
2019-01-23T09:35:13.080Z,2520.00
2019-01-23T09:36:13.108Z,2400.00
2019-01-23T09:37:13.132Z,2344.00
2019-01-23T09:38:13.160Z,2364.00
2019-01-23T09:39:13.184Z,1800.00
2019-01-23T09:40:13.213Z,1776.00
2019-01-23T09:41:13.236Z,1456.00
2019-01-23T09:42:13.263Z,1224.00
2019-01-23T09:43:13.289Z,960.00
2019-01-23T09:44:13.314Z,1056.00
2019-01-23T09:45:13.343Z,1008.00
2019-01-23T09:46:13.366Z,880.00
2019-01-23T09:47:13.394Z,852.00
2019-01-23T09:48:13.422Z,800.00
2019-01-23T09:49:13.448Z,856.00
2019-01-23T09:50:13.472Z,900.00
2019-01-23T09:51:13.498Z,928.00
2019-01-23T09:52:13.528Z,916.00
2019-01-23T09:53:13.559Z,1200.00
2019-01-23T09:54:13.577Z,1392.00
2019-01-23T09:55:13.604Z,1712.00
2019-01-23T09:56:13.631Z,1404.00
2019-01-23T09:57:13.662Z,1560.00
2019-01-23T09:58:13.686Z,1616.00
2019-01-23T09:59:13.712Z,2148.00
2019-01-23T10:00:13.739Z,3664.00
2019-01-23T10:01:13.765Z,2236.00
2019-01-23T10:02:13.788Z,3084.00
2019-01-23T10:03:13.817Z,4828.00
2019-01-23T10:04:13.843Z,5016.00
2019-01-23T10:05:13.868Z,4744.00
2019-01-23T10:06:13.895Z,5336.00
2019-01-23T10:07:13.923Z,6744.00
2019-01-23T10:08:13.948Z,5684.00
2019-01-23T10:09:13.974Z,3432.00
2019-01-23T10:10:14.002Z,6968.00
2019-01-23T10:11:14.029Z,6016.00
2019-01-23T10:12:14.059Z,8084.00
2019-01-23T10:13:14.082Z,7224.00
2019-01-23T10:14:14.109Z,6588.00
2019-01-23T10:15:14.136Z,7736.00
2019-01-23T10:16:14.165Z,7296.00
2019-01-23T10:17:14.191Z,8436.00
2019-01-23T10:18:14.221Z,9044.00
2019-01-23T10:19:14.249Z,8076.00
2019-01-23T10:20:14.275Z,8452.00
2019-01-23T10:21:14.302Z,8204.00
2019-01-23T10:22:14.333Z,8104.00
2019-01-23T10:23:14.359Z,9852.00
2019-01-23T10:24:14.391Z,9560.00
2019-01-23T10:25:14.416Z,9272.00
2019-01-23T10:26:14.446Z,12384.00
2019-01-23T10:27:14.475Z,11244.00
2019-01-23T10:28:14.504Z,10428.00
2019-01-23T10:29:14.532Z,9892.00
2019-01-23T10:30:14.561Z,9376.00
2019-01-23T10:31:14.592Z,9824.00
2019-01-23T10:32:14.624Z,10228.00
2019-01-23T10:33:14.651Z,12576.00
2019-01-23T10:34:14.680Z,9564.00
2019-01-23T10:35:14.710Z,7724.00
2019-01-23T10:36:14.741Z,7036.00
2019-01-23T10:37:19.503Z,3328.00
2019-01-23T10:38:14.801Z,7012.00
2019-01-23T10:39:14.835Z,3372.00
2019-01-23T10:40:14.864Z,3352.00
2019-01-23T10:41:14.892Z,3212.00
2019-01-23T10:42:14.925Z,2424.00
2019-01-23T10:43:14.956Z,2392.00
2019-01-23T10:44:14.990Z,2696.00
2019-01-23T10:45:15.015Z,1356.00
2019-01-23T10:46:15.045Z,1504.00
2019-01-23T10:47:15.076Z,1328.00
2019-01-23T10:48:15.105Z,1508.00
2019-01-23T10:49:15.136Z,1360.00
2019-01-23T10:50:15.166Z,1316.00
2019-01-23T10:51:15.195Z,1284.00
2019-01-23T10:52:15.225Z,2068.00
2019-01-23T10:53:15.257Z,3168.00
2019-01-23T10:54:15.288Z,3340.00
2019-01-23T10:55:15.314Z,2212.00
2019-01-23T10:56:15.344Z,2028.00
2019-01-23T10:57:15.373Z,1692.00
2019-01-23T10:58:15.402Z,2424.00
2019-01-23T10:59:15.432Z,1960.00
2019-01-23T11:00:15.461Z,2436.00
2019-01-23T11:01:15.489Z,1648.00
2019-01-23T11:02:15.518Z,1516.00
2019-01-23T11:03:15.548Z,1672.00
2019-01-23T11:04:15.576Z,1512.00
2019-01-23T11:05:15.605Z,2300.00
2019-01-23T11:06:15.635Z,2404.00
2019-01-23T11:07:15.662Z,2072.00
2019-01-23T11:08:15.692Z,1876.00
2019-01-23T11:09:15.764Z,1596.00
2019-01-23T11:10:15.749Z,1352.00
2019-01-23T11:11:15.777Z,1232.00
2019-01-23T11:12:15.809Z,1496.00
2019-01-23T11:13:15.832Z,1204.00
2019-01-23T11:14:15.862Z,1712.00
2019-01-23T11:15:15.889Z,1368.00
2019-01-23T11:16:15.918Z,1016.00
2019-01-23T11:17:15.945Z,836.00
2019-01-23T11:18:15.974Z,796.00
2019-01-23T11:19:16.002Z,848.00
2019-01-23T11:20:16.030Z,1600.00
2019-01-23T11:21:16.059Z,2716.00
2019-01-23T11:22:16.085Z,2760.00
2019-01-23T11:23:16.115Z,1080.00
2019-01-23T11:24:16.145Z,1240.00
2019-01-23T11:25:16.170Z,1692.00
2019-01-23T11:26:16.198Z,1424.00
2019-01-23T11:27:16.228Z,1240.00
2019-01-23T11:28:16.253Z,892.00
2019-01-23T11:29:16.282Z,812.00
2019-01-23T11:30:16.308Z,1252.00
2019-01-23T11:31:20.312Z,1624.00
2019-01-23T11:32:16.365Z,1320.00
2019-01-23T11:33:16.391Z,1836.00
2019-01-23T11:34:16.418Z,2760.00
2019-01-23T11:35:16.448Z,1696.00
2019-01-23T11:36:16.475Z,1796.00
2019-01-23T11:37:16.501Z,1840.00
2019-01-23T11:38:16.529Z,2036.00
2019-01-23T11:39:16.558Z,1976.00
2019-01-23T11:40:16.585Z,2716.00
2019-01-23T11:41:16.615Z,3844.00
2019-01-23T11:42:16.642Z,3580.00
2019-01-23T11:43:16.667Z,5136.00
2019-01-23T11:44:16.696Z,4984.00
2019-01-23T11:45:16.720Z,4356.00
2019-01-23T11:46:16.749Z,4248.00
2019-01-23T11:47:16.775Z,3504.00
2019-01-23T11:48:16.806Z,3568.00
2019-01-23T11:49:16.839Z,1688.00
2019-01-23T11:50:21.798Z,1228.00
2019-01-23T11:51:16.893Z,1032.00
2019-01-23T11:52:16.921Z,872.00
2019-01-23T11:53:16.940Z,644.00
2019-01-23T11:54:16.969Z,680.00
2019-01-23T11:55:16.996Z,716.00
2019-01-23T11:56:17.023Z,704.00
2019-01-23T11:57:17.050Z,628.00
2019-01-23T11:58:17.076Z,600.00
2019-01-23T11:59:17.107Z,652.00
2019-01-23T12:00:17.137Z,716.00
2019-01-23T12:01:17.160Z,900.00
2019-01-23T12:02:17.187Z,1288.00
2019-01-23T12:03:20.989Z,832.00
2019-01-23T12:04:17.242Z,760.00
2019-01-23T12:05:17.660Z,920.00
2019-01-23T12:06:17.296Z,1136.00
2019-01-23T12:07:17.323Z,1216.00
2019-01-23T12:08:17.354Z,1020.00
2019-01-23T12:09:17.377Z,1952.00
2019-01-23T12:10:17.405Z,1976.00
2019-01-23T12:11:17.433Z,3400.00
2019-01-23T12:12:17.460Z,3624.00
2019-01-23T12:13:17.486Z,3912.00
2019-01-23T12:14:17.513Z,3204.00
2019-01-23T12:15:17.540Z,1752.00
2019-01-23T12:16:17.571Z,1704.00
2019-01-23T12:17:17.597Z,1556.00
2019-01-23T12:18:17.633Z,1608.00
2019-01-23T12:19:17.650Z,1148.00
2019-01-23T12:20:17.678Z,1056.00
2019-01-23T12:21:17.705Z,744.00
2019-01-23T12:22:17.730Z,656.00
2019-01-23T12:23:17.760Z,628.00
2019-01-23T12:24:17.784Z,696.00
2019-01-23T12:25:17.811Z,836.00
2019-01-23T12:26:17.839Z,740.00
2019-01-23T12:27:17.869Z,600.00
2019-01-23T12:28:17.893Z,660.00
2019-01-23T12:29:17.919Z,1048.00
2019-01-23T12:30:17.945Z,1704.00
2019-01-23T12:31:17.976Z,2804.00
2019-01-23T12:32:18.000Z,4736.00
2019-01-23T12:33:18.027Z,6348.00
2019-01-23T12:34:18.052Z,4512.00
2019-01-23T12:35:18.080Z,3480.00
2019-01-23T12:36:18.107Z,4040.00
2019-01-23T12:37:18.134Z,2088.00
2019-01-23T12:38:18.161Z,3260.00
2019-01-23T12:39:18.189Z,2684.00
2019-01-23T12:40:18.215Z,2548.00
2019-01-23T12:41:18.243Z,4644.00
2019-01-23T12:42:18.269Z,2804.00
2019-01-23T12:43:18.297Z,2644.00
2019-01-23T12:44:18.329Z,2912.00
2019-01-23T12:45:18.350Z,3520.00
2019-01-23T12:46:18.381Z,4072.00
2019-01-23T12:47:18.409Z,7732.00
2019-01-23T12:48:18.436Z,6064.00
2019-01-23T12:49:18.461Z,7064.00
2019-01-23T12:50:18.488Z,6080.00
2019-01-23T12:51:19.104Z,5240.00
2019-01-23T12:52:18.547Z,6840.00
2019-01-23T12:53:18.571Z,5776.00
2019-01-23T12:54:18.605Z,6264.00
2019-01-23T12:55:18.624Z,6404.00
2019-01-23T12:56:18.656Z,6668.00
2019-01-23T12:57:18.683Z,5796.00
2019-01-23T12:58:18.711Z,3840.00
2019-01-23T12:59:18.737Z,3496.00
2019-01-23T13:00:18.767Z,2208.00
2019-01-23T13:01:18.795Z,2112.00
2019-01-23T13:02:18.822Z,2648.00
2019-01-23T13:03:18.851Z,2324.00
2019-01-23T13:04:18.880Z,2604.00
2019-01-23T13:05:18.907Z,1760.00
2019-01-23T13:06:18.935Z,2044.00
2019-01-23T13:07:18.966Z,2428.00
2019-01-23T13:08:18.993Z,2644.00
2019-01-23T13:09:19.032Z,3096.00
2019-01-23T13:10:19.050Z,2276.00
2019-01-23T13:11:19.077Z,2636.00
2019-01-23T13:12:19.105Z,2360.00
2019-01-23T13:13:19.300Z,2876.00
2019-01-23T13:14:19.167Z,2756.00
2019-01-23T13:15:19.193Z,2352.00
2019-01-23T13:16:19.218Z,2124.00
2019-01-23T13:17:19.246Z,2880.00
2019-01-23T13:18:19.275Z,1812.00
2019-01-23T13:19:19.303Z,1956.00
2019-01-23T13:20:19.334Z,1996.00
2019-01-23T13:21:19.361Z,2224.00
2019-01-23T13:22:19.388Z,2636.00
2019-01-23T13:23:19.858Z,3016.00
2019-01-23T13:24:19.467Z,2060.00
2019-01-23T13:25:19.471Z,3096.00
2019-01-23T13:26:19.499Z,2864.00
2019-01-23T13:27:19.533Z,1788.00
2019-01-23T13:28:19.574Z,2436.00
2019-01-23T13:29:19.584Z,2536.00
2019-01-23T13:30:19.613Z,2284.00
2019-01-23T13:31:19.647Z,2364.00
2019-01-23T13:32:19.685Z,2152.00
2019-01-23T13:33:19.699Z,2280.00
2019-01-23T13:34:19.730Z,2796.00
2019-01-23T13:35:19.756Z,1968.00
2019-01-23T13:36:19.794Z,2436.00
2019-01-23T13:37:19.812Z,2876.00
2019-01-23T13:38:19.882Z,2636.00
2019-01-23T13:39:19.871Z,2748.00
2019-01-23T13:40:19.909Z,2392.00
2019-01-23T13:41:19.930Z,2068.00
2019-01-23T13:42:19.960Z,2056.00
2019-01-23T13:43:19.980Z,1916.00
2019-01-23T13:44:20.014Z,1868.00
2019-01-23T13:45:20.037Z,1564.00
2019-01-23T13:46:20.068Z,1516.00
2019-01-23T13:47:20.094Z,1416.00
2019-01-23T13:48:20.123Z,1464.00
2019-01-23T13:49:20.151Z,1580.00
2019-01-23T13:50:20.182Z,1632.00
2019-01-23T13:51:20.206Z,1656.00
2019-01-23T13:52:20.235Z,1860.00
2019-01-23T13:53:20.261Z,1832.00
2019-01-23T13:54:20.291Z,1844.00
2019-01-23T13:55:20.321Z,1764.00
2019-01-23T13:56:20.346Z,1652.00
2019-01-23T13:57:20.374Z,1352.00
2019-01-23T13:58:20.402Z,1256.00
2019-01-23T13:59:20.430Z,1332.00
2019-01-23T14:00:20.457Z,1444.00
2019-01-23T14:01:20.485Z,1508.00
2019-01-23T14:02:20.513Z,1432.00
2019-01-23T14:03:20.541Z,1316.00
2019-01-23T14:04:20.571Z,1244.00
2019-01-23T14:05:20.601Z,1120.00
2019-01-23T14:06:20.623Z,996.00
2019-01-23T14:07:20.653Z,816.00
2019-01-23T14:08:20.683Z,760.00
2019-01-23T14:09:20.710Z,688.00
2019-01-23T14:10:20.733Z,628.00
2019-01-23T14:11:20.764Z,588.00
2019-01-23T14:12:20.787Z,580.00
2019-01-23T14:13:20.818Z,516.00
2019-01-23T14:14:20.854Z,516.00
2019-01-23T14:15:20.871Z,524.00
2019-01-23T14:16:20.899Z,476.00
2019-01-23T14:17:20.926Z,496.00
2019-01-23T14:18:20.952Z,496.00
2019-01-23T14:19:20.987Z,436.00
2019-01-23T14:20:21.010Z,408.00